Time;durP1;ratioP1;P1;durP2;ratioP2;P2;SDS_P1;SDS_P2;PMS_P1;PMS_P2;Temp;Humidity;BMP_temperature;BMP_pressure;BME280_temperature;BME280_humidity;BME280_pressure;Samples;Min_cycle;Max_cycle;Signal;HPM_P1;HPM_P2
2023/03/25 00:01:01;;;;;;;;;;;10.10;99.90;;;;;;5134368;27;20474;-60
2023/03/25 00:03:28;;;;;;;;;;;10.10;99.90;;;;;;5126305;27;20025;-61
2023/03/25 00:05:55;;;;;;;;;;;10.10;99.90;;;;;;5113918;28;19907;-60
2023/03/25 00:08:21;;;;;;;;;;;10.20;99.90;;;;;;5113963;28;19915;-61
2023/03/25 00:10:53;;;;;;;;;;;10.20;99.90;;;;;;5112649;28;20397;-60
2023/03/25 00:13:20;;;;;;;;;;;10.20;99.90;;;;;;5114128;27;20388;-60
2023/03/25 00:15:46;;;;;;;;;;;10.20;99.90;;;;;;5130481;27;19915;-63
2023/03/25 00:18:12;;;;;;;;;;;10.30;99.90;;;;;;5117299;27;19998;-62
2023/03/25 00:20:39;;;;;;;;;;;10.30;99.90;;;;;;5113737;28;19998;-60
2023/03/25 00:23:05;;;;;;;;;;;10.30;99.90;;;;;;5124399;27;19908;-58
2023/03/25 00:25:31;;;;;;;;;;;10.30;99.90;;;;;;5133906;27;19916;-59
2023/03/25 00:27:56;;;;;;;;;;;10.30;99.90;;;;;;5134080;27;19921;-60
2023/03/25 00:30:22;;;;;;;;;;;10.30;99.90;;;;;;5133345;27;19908;-60
2023/03/25 00:32:51;;;;;;;;;;;10.40;99.90;;;;;;5133782;27;20381;-59
2023/03/25 00:35:18;;;;;;;;;;;10.30;99.90;;;;;;5133982;27;19973;-61
2023/03/25 00:37:44;;;;;;;;;;;10.40;99.90;;;;;;5133340;27;19950;-59
2023/03/25 00:40:10;;;;;;;;;;;10.30;99.90;;;;;;5133812;27;19998;-58
2023/03/25 00:42:36;;;;;;;;;;;10.30;99.90;;;;;;5133975;27;19955;-59
2023/03/25 00:45:02;;;;;;;;;;;10.30;99.90;;;;;;5133506;27;19911;-61
2023/03/25 00:47:27;;;;;;;;;;;10.30;99.90;;;;;;5134051;27;19914;-59
2023/03/25 00:49:52;;;;;;;;;;;10.20;99.90;;;;;;5133873;27;20357;-60
2023/03/25 00:52:21;;;;;;;;;;;10.20;99.90;;;;;;5131243;27;19959;-58
2023/03/25 00:54:47;;;;;;;;;;;10.20;99.90;;;;;;5124953;27;20004;-59
2023/03/25 00:57:12;;;;;;;;;;;10.20;99.90;;;;;;5133642;27;20393;-58
2023/03/25 00:59:38;;;;;;;;;;;10.10;99.90;;;;;;5132464;28;19920;-58
2023/03/25 01:02:05;;;;;;;;;;;10.00;99.90;;;;;;5133681;28;20373;-57
2023/03/25 01:04:31;;;;;;;;;;;9.90;99.90;;;;;;5133749;28;19938;-58
2023/03/25 01:06:57;;;;;;;;;;;9.80;99.90;;;;;;5132794;28;20366;-59
2023/03/25 01:09:22;;;;;;;;;;;9.70;99.90;;;;;;5133595;28;19908;-60
2023/03/25 01:11:48;;;;;;;;;;;9.70;99.90;;;;;;5133607;28;20338;-59
2023/03/25 01:14:15;;;;;;;;;;;9.70;99.90;;;;;;5132759;28;19914;-59
2023/03/25 01:16:41;;;;;;;;;;;9.60;99.90;;;;;;5133600;28;19911;-60
2023/03/25 01:19:07;;;;;;;;;;;9.50;99.90;;;;;;5133635;28;19953;-60
2023/03/25 01:21:35;;;;;;;;;;;9.50;99.90;;;;;;5134101;27;19916;-60
2023/03/25 01:24:00;;;;;;;;;;;9.40;99.90;;;;;;5137387;27;19914;-59
2023/03/25 01:26:25;;;;;;;;;;;9.50;99.90;;;;;;5136812;27;19911;-59
2023/03/25 01:28:52;;;;;;;;;;;9.40;99.90;;;;;;5137614;27;19914;-58
2023/03/25 01:31:18;;;;;;;;;;;9.40;99.90;;;;;;5137728;27;20029;-59
2023/03/25 01:33:43;;;;;;;;;;;9.40;99.90;;;;;;5136639;27;20486;-60
2023/03/25 01:36:11;;;;;;;;;;;9.30;99.90;;;;;;5137522;27;19918;-60
2023/03/25 01:38:37;;;;;;;;;;;9.30;99.90;;;;;;5137595;27;19953;-60
2023/03/25 01:41:03;;;;;;;;;;;9.30;99.90;;;;;;5136477;27;19955;-61
2023/03/25 01:43:29;;;;;;;;;;;9.20;99.90;;;;;;5137291;27;20388;-61
2023/03/25 01:45:55;;;;;;;;;;;9.20;99.90;;;;;;5137258;27;20394;-61
2023/03/25 01:48:26;;;;;;;;;;;9.20;99.90;;;;;;5136276;27;20250;-60
2023/03/25 01:50:54;;;;;;;;;;;9.20;99.90;;;;;;5137184;27;19930;-60
2023/03/25 01:53:20;;;;;;;;;;;9.10;99.90;;;;;;5137130;27;20434;-59
2023/03/25 01:55:46;;;;;;;;;;;9.20;99.90;;;;;;5136115;27;19923;-59
2023/03/25 01:58:14;;;;;;;;;;;9.20;99.90;;;;;;5137037;27;19963;-59
2023/03/25 02:00:42;;;;;;;;;;;9.20;99.90;;;;;;5136218;27;19920;-59
2023/03/25 02:03:08;;;;;;;;;;;9.20;99.90;;;;;;5136158;27;19923;-59
2023/03/25 02:05:40;;;;;;;;;;;9.20;99.90;;;;;;5137111;27;20358;-58
2023/03/25 02:08:08;;;;;;;;;;;9.20;99.90;;;;;;5136721;27;19907;-60
2023/03/25 02:10:33;;;;;;;;;;;9.20;99.90;;;;;;5136056;27;20382;-57
2023/03/25 02:13:00;;;;;;;;;;;9.20;99.90;;;;;;5136709;27;19972;-57
2023/03/25 02:15:26;;;;;;;;;;;9.20;99.90;;;;;;5136813;27;19912;-57
2023/03/25 02:18:15;;;;;;;;;;;9.20;99.90;;;;;;5136014;27;20381;-56
2023/03/25 02:20:40;;;;;;;;;;;9.20;99.90;;;;;;5136570;27;19966;-56
2023/03/25 02:23:13;;;;;;;;;;;9.10;99.90;;;;;;5135143;27;19943;-54
2023/03/25 02:25:44;;;;;;;;;;;9.10;99.90;;;;;;5136592;27;20297;-57
2023/03/25 02:28:10;;;;;;;;;;;9.00;99.90;;;;;;5136501;27;19998;-59
2023/03/25 02:30:47;;;;;;;;;;;9.00;99.90;;;;;;5135643;27;20341;-58
2023/03/25 02:33:21;;;;;;;;;;;9.00;99.90;;;;;;5135966;27;19907;-58
2023/03/25 02:35:48;;;;;;;;;;;8.90;99.90;;;;;;5136368;27;19953;-57
2023/03/25 02:38:23;;;;;;;;;;;8.90;99.90;;;;;;5135413;27;20265;-55
2023/03/25 02:41:07;;;;;;;;;;;9.00;99.90;;;;;;5136212;27;19980;-58
2023/03/25 02:43:44;;;;;;;;;;;8.90;99.90;;;;;;5136078;27;19907;-58
2023/03/25 02:46:11;;;;;;;;;;;8.90;99.90;;;;;;5136066;27;20254;-58
2023/03/25 02:48:44;;;;;;;;;;;8.90;99.90;;;;;;5135385;27;19915;-56
2023/03/25 02:51:15;;;;;;;;;;;8.90;99.90;;;;;;5134991;27;19995;-58
2023/03/25 02:53:42;;;;;;;;;;;8.90;99.90;;;;;;5135732;27;19907;-58
2023/03/25 02:56:10;;;;;;;;;;;8.90;99.90;;;;;;5135511;27;19919;-58
2023/03/25 02:58:37;;;;;;;;;;;8.90;99.90;;;;;;5117320;27;19915;-57
2023/03/25 03:01:03;;;;;;;;;;;8.90;99.90;;;;;;5124251;27;19962;-58
2023/03/25 03:03:29;;;;;;;;;;;8.90;99.90;;;;;;5115378;28;19915;-57
2023/03/25 03:05:56;;;;;;;;;;;8.90;99.90;;;;;;5114377;28;19953;-59
2023/03/25 03:08:25;;;;;;;;;;;8.90;99.90;;;;;;5115178;28;19915;-59
2023/03/25 03:11:09;;;;;;;;;;;8.90;99.90;;;;;;5133110;27;20361;-56
2023/03/25 03:13:38;;;;;;;;;;;8.80;99.90;;;;;;5134876;27;19942;-59
2023/03/25 03:16:29;;;;;;;;;;;8.80;99.90;;;;;;5135512;27;19907;-57
2023/03/25 03:19:14;;;;;;;;;;;8.80;99.90;;;;;;5134398;27;19933;-57
2023/03/25 03:22:01;;;;;;;;;;;8.80;99.90;;;;;;5135032;27;20382;-57
2023/03/25 03:24:32;;;;;;;;;;;8.80;99.90;;;;;;5135448;27;19930;-57
2023/03/25 03:27:01;;;;;;;;;;;8.80;99.90;;;;;;5134819;27;19911;-56
2023/03/25 03:29:31;;;;;;;;;;;8.80;99.90;;;;;;5135210;27;19919;-57
2023/03/25 03:32:29;;;;;;;;;;;8.90;99.90;;;;;;5135275;27;19920;-56
2023/03/25 03:34:57;;;;;;;;;;;8.90;99.90;;;;;;5110772;27;19908;-56
2023/03/25 03:37:26;;;;;;;;;;;8.90;99.90;;;;;;5135148;27;20340;-56
2023/03/25 03:39:52;;;;;;;;;;;8.90;99.90;;;;;;5134588;27;19966;-58
2023/03/25 03:42:27;;;;;;;;;;;8.90;99.90;;;;;;5135230;27;19908;-56
2023/03/25 03:44:55;;;;;;;;;;;8.90;99.90;;;;;;5134101;27;19907;-56
2023/03/25 03:47:23;;;;;;;;;;;8.90;99.90;;;;;;5134173;27;19999;-56
2023/03/25 03:49:56;;;;;;;;;;;8.90;99.90;;;;;;5134681;27;19911;-57
2023/03/25 03:52:24;;;;;;;;;;;8.90;99.90;;;;;;5134819;27;19929;-56
2023/03/25 03:54:53;;;;;;;;;;;8.90;99.90;;;;;;5133748;27;19930;-54
2023/03/25 03:57:20;;;;;;;;;;;8.90;99.90;;;;;;5134698;27;19907;-56
2023/03/25 03:59:52;;;;;;;;;;;8.90;99.90;;;;;;5134414;27;19919;-56
2023/03/25 04:02:27;;;;;;;;;;;8.80;99.90;;;;;;5133851;27;20014;-57
2023/03/25 04:04:53;;;;;;;;;;;8.80;99.90;;;;;;5134479;27;19907;-56
2023/03/25 04:07:22;;;;;;;;;;;8.80;99.90;;;;;;5130852;27;19954;-57
2023/03/25 04:10:03;;;;;;;;;;;8.90;99.90;;;;;;5128872;27;19919;-54
2023/03/25 04:12:31;;;;;;;;;;;8.90;99.90;;;;;;5117327;27;20370;-57
2023/03/25 04:14:59;;;;;;;;;;;8.90;99.90;;;;;;5124166;27;19907;-57
2023/03/25 04:17:28;;;;;;;;;;;8.90;99.90;;;;;;5123287;27;20350;-56
2023/03/25 04:19:55;;;;;;;;;;;8.90;99.90;;;;;;5134112;27;19916;-55
2023/03/25 04:22:20;;;;;;;;;;;8.90;99.90;;;;;;5133488;27;19952;-54
2023/03/25 04:24:48;;;;;;;;;;;8.90;99.90;;;;;;5134251;27;19995;-55
2023/03/25 04:27:15;;;;;;;;;;;8.90;99.90;;;;;;5134033;27;19911;-56
2023/03/25 04:29:40;;;;;;;;;;;8.90;99.90;;;;;;5133415;27;19908;-57
2023/03/25 04:32:07;;;;;;;;;;;8.90;99.90;;;;;;5133924;27;19908;-57
2023/03/25 04:34:32;;;;;;;;;;;8.90;99.90;;;;;;5134201;27;19915;-58
2023/03/25 04:36:58;;;;;;;;;;;8.80;99.90;;;;;;5133151;27;19911;-57
2023/03/25 04:39:24;;;;;;;;;;;8.80;99.90;;;;;;5133710;27;19911;-57
2023/03/25 04:41:52;;;;;;;;;;;8.80;99.90;;;;;;5133944;27;19914;-56
2023/03/25 04:44:19;;;;;;;;;;;8.80;99.90;;;;;;5132854;27;19912;-58
2023/03/25 04:46:45;;;;;;;;;;;8.80;99.90;;;;;;5133842;27;20353;-57
2023/03/25 04:49:18;;;;;;;;;;;8.80;99.90;;;;;;5133899;27;19911;-56
2023/03/25 04:51:43;;;;;;;;;;;8.80;99.90;;;;;;5133003;27;19907;-56
2023/03/25 04:54:09;;;;;;;;;;;8.70;99.90;;;;;;5133770;27;19907;-57
2023/03/25 04:56:35;;;;;;;;;;;8.70;99.90;;;;;;5133653;27;19908;-56
2023/03/25 04:59:01;;;;;;;;;;;8.70;99.90;;;;;;5132746;27;20377;-56
2023/03/25 05:01:31;;;;;;;;;;;8.70;99.90;;;;;;5133445;28;19923;-56
2023/03/25 05:04:03;;;;;;;;;;;8.70;99.90;;;;;;5131418;28;19912;-56
2023/03/25 05:06:31;;;;;;;;;;;8.60;99.90;;;;;;5117958;28;19931;-56
2023/03/25 05:08:57;;;;;;;;;;;8.70;99.90;;;;;;5119178;28;19954;-56
2023/03/25 05:11:23;;;;;;;;;;;8.70;99.90;;;;;;5132866;28;19907;-56
2023/03/25 05:13:48;;;;;;;;;;;8.70;99.90;;;;;;5129899;28;19931;-55
2023/03/25 05:16:14;;;;;;;;;;;8.70;99.90;;;;;;5113049;28;19908;-55
2023/03/25 05:18:40;;;;;;;;;;;8.70;99.90;;;;;;5130062;28;19972;-54
2023/03/25 05:21:05;;;;;;;;;;;8.70;99.90;;;;;;5133343;28;19919;-57
2023/03/25 05:23:31;;;;;;;;;;;8.70;99.90;;;;;;5133512;28;19918;-56
2023/03/25 05:25:56;;;;;;;;;;;8.70;99.90;;;;;;5132677;28;20001;-59
2023/03/25 05:28:22;;;;;;;;;;;8.70;99.90;;;;;;5133429;28;19912;-59
2023/03/25 05:30:47;;;;;;;;;;;8.70;99.90;;;;;;5133470;28;19907;-57
2023/03/25 05:33:14;;;;;;;;;;;8.60;99.90;;;;;;5124333;28;20905;-57
2023/03/25 05:35:40;;;;;;;;;;;8.60;99.90;;;;;;5112851;28;19953;-58
2023/03/25 05:38:11;;;;;;;;;;;8.50;99.90;;;;;;5112709;28;19908;-56
2023/03/25 05:40:37;;;;;;;;;;;8.60;99.90;;;;;;5132243;28;19974;-56
2023/03/25 05:43:02;;;;;;;;;;;8.60;99.90;;;;;;5133219;28;20006;-56
2023/03/25 05:45:28;;;;;;;;;;;8.50;99.90;;;;;;5133318;28;20001;-55
2023/03/25 05:47:54;;;;;;;;;;;8.50;99.90;;;;;;5132454;28;20376;-56
2023/03/25 05:50:20;;;;;;;;;;;8.50;99.90;;;;;;5133268;28;19952;-57
2023/03/25 05:52:48;;;;;;;;;;;8.50;99.90;;;;;;5133375;28;19907;-58
2023/03/25 05:55:19;;;;;;;;;;;8.60;99.90;;;;;;5132384;28;19908;-58
2023/03/25 05:57:44;;;;;;;;;;;8.60;99.90;;;;;;5133186;28;19907;-58
2023/03/25 06:00:11;;;;;;;;;;;8.50;99.90;;;;;;5132722;28;19944;-58
2023/03/25 06:02:37;;;;;;;;;;;8.50;99.90;;;;;;5132418;28;19915;-57
2023/03/25 06:05:06;;;;;;;;;;;8.50;99.90;;;;;;5127992;28;19911;-58
2023/03/25 06:07:31;;;;;;;;;;;8.50;99.90;;;;;;5129440;27;20006;-56
2023/03/25 06:09:57;;;;;;;;;;;8.50;99.90;;;;;;5134679;27;20406;-58
2023/03/25 06:12:23;;;;;;;;;;;8.50;99.90;;;;;;5132275;27;20041;-57
2023/03/25 06:14:52;;;;;;;;;;;8.50;99.90;;;;;;5126451;27;19955;-57
2023/03/25 06:17:20;;;;;;;;;;;8.60;99.90;;;;;;5118949;27;20007;-56
2023/03/25 06:19:46;;;;;;;;;;;8.60;99.90;;;;;;5123525;27;19920;-57
2023/03/25 06:22:12;;;;;;;;;;;8.60;99.90;;;;;;5114938;28;19912;-58
2023/03/25 06:24:38;;;;;;;;;;;8.60;99.90;;;;;;5115972;28;20281;-57
2023/03/25 06:27:05;;;;;;;;;;;8.70;99.90;;;;;;5115921;28;19954;-57
2023/03/25 06:29:32;;;;;;;;;;;8.60;99.90;;;;;;5115200;28;19961;-56
2023/03/25 06:31:57;;;;;;;;;;;8.60;99.90;;;;;;5115776;28;19931;-56
2023/03/25 06:34:23;;;;;;;;;;;8.60;99.90;;;;;;5115885;28;20361;-56
2023/03/25 06:36:48;;;;;;;;;;;8.50;99.90;;;;;;5117447;27;19908;-56
2023/03/25 06:39:15;;;;;;;;;;;8.50;99.90;;;;;;5136106;27;19960;-56
2023/03/25 06:41:41;;;;;;;;;;;8.50;99.90;;;;;;5136099;27;19987;-56
2023/03/25 06:44:06;;;;;;;;;;;8.50;99.90;;;;;;5135371;27;20274;-56
2023/03/25 06:46:32;;;;;;;;;;;8.50;99.90;;;;;;5136205;27;19914;-56
2023/03/25 06:48:57;;;;;;;;;;;8.50;99.90;;;;;;5135950;27;19927;-55
2023/03/25 06:51:23;;;;;;;;;;;8.50;99.90;;;;;;5134908;27;19915;-56
2023/03/25 06:53:48;;;;;;;;;;;8.50;99.90;;;;;;5135987;27;20388;-55
2023/03/25 06:56:14;;;;;;;;;;;8.50;99.90;;;;;;5135941;27;19912;-55
2023/03/25 06:58:40;;;;;;;;;;;8.50;99.90;;;;;;5133783;27;19907;-56
2023/03/25 07:01:06;;;;;;;;;;;8.60;99.90;;;;;;5114354;27;19959;-55
2023/03/25 07:03:32;;;;;;;;;;;8.60;99.90;;;;;;5122147;27;19993;-55
2023/03/25 07:05:57;;;;;;;;;;;8.60;99.90;;;;;;5123989;27;19912;-54
2023/03/25 07:08:23;;;;;;;;;;;8.70;99.90;;;;;;5129711;27;19911;-56
2023/03/25 07:10:49;;;;;;;;;;;8.70;99.90;;;;;;5132289;27;19911;-56
2023/03/25 07:13:14;;;;;;;;;;;8.70;99.90;;;;;;5131266;27;19971;-55
2023/03/25 07:15:40;;;;;;;;;;;8.70;99.90;;;;;;5134683;27;19918;-56
2023/03/25 07:18:06;;;;;;;;;;;8.80;99.90;;;;;;5134695;27;19908;-55
2023/03/25 07:20:31;;;;;;;;;;;8.80;99.90;;;;;;5134928;27;20289;-56
2023/03/25 07:22:57;;;;;;;;;;;8.80;99.90;;;;;;5134193;27;19919;-55
2023/03/25 07:25:22;;;;;;;;;;;8.80;99.90;;;;;;5134565;27;19907;-54
2023/03/25 07:27:48;;;;;;;;;;;8.80;99.90;;;;;;5129636;27;20003;-56
2023/03/25 07:30:13;;;;;;;;;;;8.90;99.90;;;;;;5133986;27;19919;-55
2023/03/25 07:32:39;;;;;;;;;;;9.00;99.90;;;;;;5134547;27;19908;-55
2023/03/25 07:35:05;;;;;;;;;;;9.10;99.90;;;;;;5135143;27;19968;-55
2023/03/25 07:37:31;;;;;;;;;;;9.20;99.90;;;;;;5135214;27;19957;-56
2023/03/25 07:39:56;;;;;;;;;;;9.30;99.90;;;;;;5134160;27;19947;-56
2023/03/25 07:42:22;;;;;;;;;;;9.30;99.90;;;;;;5120087;27;20372;-55
2023/03/25 07:44:47;;;;;;;;;;;9.20;99.90;;;;;;5114545;28;19934;-56
2023/03/25 07:47:12;;;;;;;;;;;9.20;99.90;;;;;;5113582;28;19908;-55
2023/03/25 07:49:39;;;;;;;;;;;9.10;99.90;;;;;;5114319;28;20366;-53
2023/03/25 07:52:06;;;;;;;;;;;9.00;99.90;;;;;;5114165;28;19945;-54
2023/03/25 07:54:31;;;;;;;;;;;8.90;99.90;;;;;;5113583;28;19915;-58
2023/03/25 07:56:57;;;;;;;;;;;8.70;99.90;;;;;;5114231;28;19908;-47
2023/03/25 07:59:23;;;;;;;;;;;8.60;99.90;;;;;;5114257;28;19908;-49
2023/03/25 08:01:49;;;;;;;;;;;8.60;99.90;;;;;;5125767;27;19926;-46
2023/03/25 08:04:14;;;;;;;;;;;8.50;99.90;;;;;;5134429;27;19921;-53
2023/03/25 08:06:40;;;;;;;;;;;8.60;99.90;;;;;;5133990;27;19907;-53
2023/03/25 08:09:06;;;;;;;;;;;8.60;99.90;;;;;;5114440;27;20297;-55
2023/03/25 08:11:31;;;;;;;;;;;8.60;99.90;;;;;;5113843;28;19908;-54
2023/03/25 08:13:57;;;;;;;;;;;8.70;99.90;;;;;;5120670;27;19918;-53
2023/03/25 08:16:22;;;;;;;;;;;8.70;99.90;;;;;;5121901;27;19912;-54
2023/03/25 08:18:51;;;;;;;;;;;8.60;99.90;;;;;;5129628;27;20422;-49
2023/03/25 08:21:21;;;;;;;;;;;8.60;99.90;;;;;;5130333;27;19923;-53
2023/03/25 08:23:47;;;;;;;;;;;8.60;99.90;;;;;;5127125;27;19907;-46
2023/03/25 08:26:12;;;;;;;;;;;8.50;99.90;;;;;;5126226;27;19915;-56
2023/03/25 08:28:38;;;;;;;;;;;8.50;99.90;;;;;;5125045;27;19914;-56
2023/03/25 08:31:08;;;;;;;;;;;8.40;99.90;;;;;;5128216;27;19912;-45
2023/03/25 08:33:38;;;;;;;;;;;8.30;99.90;;;;;;5124952;27;19908;-56
2023/03/25 08:36:04;;;;;;;;;;;8.30;99.90;;;;;;5116343;27;19913;-53
2023/03/25 08:38:30;;;;;;;;;;;8.30;99.90;;;;;;5132665;27;19998;-56
2023/03/25 08:40:59;;;;;;;;;;;8.40;99.90;;;;;;5113432;27;20397;-56
2023/03/25 08:43:25;;;;;;;;;;;8.40;99.90;;;;;;5122172;27;19908;-56
2023/03/25 08:45:50;;;;;;;;;;;8.50;99.90;;;;;;5134024;27;19915;-56
2023/03/25 08:48:16;;;;;;;;;;;8.50;99.90;;;;;;5125614;27;20456;-56
2023/03/25 08:50:42;;;;;;;;;;;8.60;99.90;;;;;;5112519;28;19908;-55
2023/03/25 08:53:08;;;;;;;;;;;8.70;99.90;;;;;;5113238;28;20381;-57
2023/03/25 08:55:33;;;;;;;;;;;8.70;99.90;;;;;;5128294;28;19915;-57
2023/03/25 08:58:06;;;;;;;;;;;8.80;99.90;;;;;;5123205;27;19911;-56
2023/03/25 09:00:33;;;;;;;;;;;8.80;99.90;;;;;;5120839;27;19923;-54
2023/03/25 09:02:59;;;;;;;;;;;8.90;99.90;;;;;;5128463;28;19907;-55
2023/03/25 09:05:25;;;;;;;;;;;9.10;99.90;;;;;;5112518;28;19915;-54
2023/03/25 09:07:51;;;;;;;;;;;9.10;99.90;;;;;;5113401;28;19955;-55
2023/03/25 09:10:16;;;;;;;;;;;9.20;99.90;;;;;;5121770;28;20012;-56
2023/03/25 09:12:42;;;;;;;;;;;9.20;99.90;;;;;;5132938;28;19911;-55
2023/03/25 09:15:08;;;;;;;;;;;9.30;99.90;;;;;;5133471;28;19915;-55
2023/03/25 09:17:34;;;;;;;;;;;9.20;99.90;;;;;;5132787;28;19953;-55
2023/03/25 09:19:59;;;;;;;;;;;9.20;99.90;;;;;;5133489;28;19919;-55
2023/03/25 09:22:25;;;;;;;;;;;9.30;99.90;;;;;;5133580;28;19908;-55
2023/03/25 09:24:50;;;;;;;;;;;9.20;99.90;;;;;;5127646;28;20026;-55
2023/03/25 09:27:16;;;;;;;;;;;9.20;99.90;;;;;;5123914;28;20354;-54
2023/03/25 09:29:41;;;;;;;;;;;9.20;99.90;;;;;;5115677;28;19989;-54
2023/03/25 09:32:08;;;;;;;;;;;9.20;99.90;;;;;;5131595;28;19923;-56
2023/03/25 09:34:33;;;;;;;;;;;9.30;99.90;;;;;;5133562;28;19990;-55
2023/03/25 09:37:00;;;;;;;;;;;9.50;99.90;;;;;;5116629;28;20045;-54
2023/03/25 09:39:26;;;;;;;;;;;9.60;99.90;;;;;;5112043;28;19908;-54
2023/03/25 09:42:07;;;;;;;;;;;9.70;99.90;;;;;;5112808;28;20362;-56
2023/03/25 09:44:36;;;;;;;;;;;9.70;99.90;;;;;;5113854;28;20282;-53
2023/03/25 09:47:02;;;;;;;;;;;9.70;99.90;;;;;;5117537;27;19971;-57
2023/03/25 09:49:36;;;;;;;;;;;9.70;99.90;;;;;;5136823;27;19920;-57
2023/03/25 09:52:02;;;;;;;;;;;9.60;99.90;;;;;;5136639;27;20271;-58
2023/03/25 09:54:32;;;;;;;;;;;9.60;99.90;;;;;;5136380;27;19916;-57
2023/03/25 09:57:05;;;;;;;;;;;9.50;99.90;;;;;;5136616;27;20270;-58
2023/03/25 09:59:33;;;;;;;;;;;9.40;99.90;;;;;;5136511;27;19912;-57
2023/03/25 10:02:17;;;;;;;;;;;9.40;99.90;;;;;;5136173;27;20010;-51
2023/03/25 10:05:09;;;;;;;;;;;9.30;99.90;;;;;;5137026;27;20360;-50
2023/03/25 10:07:53;;;;;;;;;;;9.20;99.90;;;;;;5119454;27;19950;-55
2023/03/25 10:10:21;;;;;;;;;;;9.30;99.90;;;;;;5136897;27;19939;-50
2023/03/25 10:12:50;;;;;;;;;;;9.40;99.90;;;;;;5136927;27;19998;-56
2023/03/25 10:15:25;;;;;;;;;;;9.30;99.90;;;;;;5135924;27;19908;-56
2023/03/25 10:18:00;;;;;;;;;;;9.40;99.90;;;;;;5136750;27;19915;-56
2023/03/25 10:20:39;;;;;;;;;;;9.60;99.90;;;;;;5136787;27;19916;-58
2023/03/25 10:23:12;;;;;;;;;;;9.70;99.90;;;;;;5133343;27;19920;-57
2023/03/25 10:25:40;;;;;;;;;;;9.60;99.90;;;;;;5116177;28;19947;-56
2023/03/25 10:28:09;;;;;;;;;;;9.70;99.90;;;;;;5120115;27;19968;-56
2023/03/25 10:30:40;;;;;;;;;;;9.80;99.90;;;;;;5136253;27;19912;-57
2023/03/25 10:33:11;;;;;;;;;;;9.90;99.90;;;;;;5131679;27;19912;-56
2023/03/25 10:35:39;;;;;;;;;;;9.90;99.90;;;;;;5128332;27;19911;-56
2023/03/25 10:38:17;;;;;;;;;;;9.90;99.90;;;;;;5119873;27;19907;-57
2023/03/25 10:40:48;;;;;;;;;;;9.90;99.90;;;;;;5124888;27;19923;-57
2023/03/25 10:43:26;;;;;;;;;;;9.90;99.90;;;;;;5136296;27;19914;-57
2023/03/25 10:45:57;;;;;;;;;;;9.80;99.90;;;;;;5131377;27;19994;-57
2023/03/25 10:48:24;;;;;;;;;;;9.80;99.90;;;;;;5136787;27;19908;-57
2023/03/25 10:50:51;;;;;;;;;;;9.70;99.90;;;;;;5136318;27;19907;-56
2023/03/25 10:53:27;;;;;;;;;;;9.80;99.90;;;;;;5135364;27;19911;-56
2023/03/25 10:56:02;;;;;;;;;;;9.80;99.90;;;;;;5124551;27;19927;-56
2023/03/25 10:58:28;;;;;;;;;;;9.90;99.90;;;;;;5133437;27;20391;-57
2023/03/25 11:00:54;;;;;;;;;;;10.00;99.90;;;;;;5131370;27;20433;-56
2023/03/25 11:03:30;;;;;;;;;;;10.10;99.90;;;;;;5136045;27;19918;-57
2023/03/25 11:05:56;;;;;;;;;;;10.20;99.90;;;;;;5136108;27;19912;-56
2023/03/25 11:08:22;;;;;;;;;;;10.30;99.90;;;;;;5136274;27;20327;-55
2023/03/25 11:10:50;;;;;;;;;;;10.40;99.90;;;;;;5119790;27;20003;-56
2023/03/25 11:13:20;;;;;;;;;;;10.50;99.90;;;;;;5131509;27;19915;-57
2023/03/25 11:15:47;;;;;;;;;;;10.50;99.90;;;;;;5136365;27;19947;-53
2023/03/25 11:18:18;;;;;;;;;;;10.40;99.90;;;;;;5135790;27;19915;-57
2023/03/25 11:20:46;;;;;;;;;;;10.50;99.90;;;;;;5136102;27;19916;-55
2023/03/25 11:23:32;;;;;;;;;;;10.50;99.90;;;;;;5136162;27;19907;-57
2023/03/25 11:26:05;;;;;;;;;;;10.50;99.90;;;;;;5122547;27;20369;-57
2023/03/25 11:28:35;;;;;;;;;;;10.40;99.90;;;;;;5115292;28;19908;-57
2023/03/25 11:31:16;;;;;;;;;;;10.30;99.90;;;;;;5126217;27;19912;-57
2023/03/25 11:33:43;;;;;;;;;;;10.30;99.90;;;;;;5135745;27;20303;-57
2023/03/25 11:36:09;;;;;;;;;;;10.30;99.90;;;;;;5135773;27;20332;-57
2023/03/25 11:38:36;;;;;;;;;;;10.30;99.90;;;;;;5135371;27;19953;-57
2023/03/25 11:41:02;;;;;;;;;;;10.30;99.90;;;;;;5133099;27;19927;-56
2023/03/25 11:43:32;;;;;;;;;;;10.30;99.90;;;;;;5135105;27;19908;-55
2023/03/25 11:46:06;;;;;;;;;;;10.40;99.90;;;;;;5134265;27;19933;-56
2023/03/25 11:48:34;;;;;;;;;;;10.50;99.90;;;;;;5134410;27;19932;-56
2023/03/25 11:51:01;;;;;;;;;;;10.70;99.90;;;;;;5133715;27;20009;-57
2023/03/25 11:53:30;;;;;;;;;;;10.80;99.90;;;;;;5133297;27;19907;-57
2023/03/25 11:55:58;;;;;;;;;;;11.00;99.90;;;;;;5132581;27;19927;-55
2023/03/25 11:58:30;;;;;;;;;;;11.10;99.90;;;;;;5133160;27;19975;-54
2023/03/25 12:01:19;;;;;;;;;;;11.00;99.90;;;;;;5131685;27;19920;-56
2023/03/25 12:03:44;;;;;;;;;;;10.90;99.90;;;;;;5124168;27;19911;-55
2023/03/25 12:06:10;;;;;;;;;;;10.80;99.90;;;;;;5133476;27;19919;-56
2023/03/25 12:08:42;;;;;;;;;;;10.80;99.90;;;;;;5127682;27;19912;-55
2023/03/25 12:11:10;;;;;;;;;;;10.80;99.90;;;;;;5132376;27;19911;-56
2023/03/25 12:13:53;;;;;;;;;;;10.90;99.90;;;;;;5121910;27;19912;-57
2023/03/25 12:16:34;;;;;;;;;;;11.10;99.90;;;;;;5122391;27;20000;-56
2023/03/25 12:19:18;;;;;;;;;;;11.30;99.90;;;;;;5118593;27;19963;-55
2023/03/25 12:21:54;;;;;;;;;;;11.30;99.90;;;;;;5132752;27;20369;-55
2023/03/25 12:24:25;;;;;;;;;;;11.30;99.90;;;;;;5133671;27;19918;-57
2023/03/25 12:26:57;;;;;;;;;;;11.40;99.90;;;;;;5131601;27;19994;-57
2023/03/25 12:29:37;;;;;;;;;;;11.30;99.90;;;;;;5133567;27;20193;-56
2023/03/25 12:32:22;;;;;;;;;;;11.30;99.90;;;;;;5127356;27;20273;-57
2023/03/25 12:34:48;;;;;;;;;;;11.30;99.90;;;;;;5119718;27;19938;-58
2023/03/25 12:37:32;;;;;;;;;;;11.30;99.90;;;;;;5114822;27;20074;-57
2023/03/25 12:39:58;;;;;;;;;;;11.20;99.90;;;;;;5124850;27;20401;-58
2023/03/25 12:42:29;;;;;;;;;;;11.10;99.90;;;;;;5111495;27;19916;-59
2023/03/25 12:45:13;;;;;;;;;;;11.10;99.90;;;;;;5126239;27;20006;-55
2023/03/25 12:47:39;;;;;;;;;;;11.20;99.90;;;;;;5125482;27;19907;-58
2023/03/25 12:50:24;;;;;;;;;;;11.60;99.90;;;;;;5127458;27;19926;-57
2023/03/25 12:53:08;;;;;;;;;;;11.60;99.90;;;;;;5122546;27;20344;-58
2023/03/25 12:55:44;;;;;;;;;;;11.90;99.90;;;;;;5128531;27;19912;-57
2023/03/25 12:58:16;;;;;;;;;;;12.00;99.90;;;;;;5123235;27;19987;-58
2023/03/25 13:01:07;;;;;;;;;;;11.80;99.90;;;;;;5112730;28;19919;-59
2023/03/25 13:03:51;;;;;;;;;;;11.70;99.90;;;;;;5112431;28;19919;-59
2023/03/25 13:06:25;;;;;;;;;;;11.70;99.90;;;;;;5115621;28;19920;-59
2023/03/25 13:09:16;;;;;;;;;;;11.60;99.90;;;;;;5132981;28;20293;-56
2023/03/25 13:11:44;;;;;;;;;;;11.60;99.90;;;;;;5118472;28;19912;-55
2023/03/25 13:14:21;;;;;;;;;;;11.70;99.90;;;;;;5122402;28;19919;-59
2023/03/25 13:16:48;;;;;;;;;;;11.60;99.90;;;;;;5131589;27;19912;-57
2023/03/25 13:19:17;;;;;;;;;;;11.50;99.90;;;;;;5125961;27;19918;-57
2023/03/25 13:21:45;;;;;;;;;;;11.50;99.90;;;;;;5117113;28;19920;-57
2023/03/25 13:24:16;;;;;;;;;;;11.50;99.90;;;;;;5134837;27;19922;-59
2023/03/25 13:26:44;;;;;;;;;;;11.50;99.90;;;;;;5118792;27;20002;-57
2023/03/25 13:29:21;;;;;;;;;;;11.50;99.90;;;;;;5123196;27;19912;-57
2023/03/25 13:31:48;;;;;;;;;;;11.50;99.90;;;;;;5136174;27;19916;-58
2023/03/25 13:34:14;;;;;;;;;;;11.60;99.90;;;;;;5137363;27;19918;-58
2023/03/25 13:36:41;;;;;;;;;;;11.80;99.90;;;;;;5137292;27;20005;-58
2023/03/25 13:39:27;;;;;;;;;;;12.00;99.90;;;;;;5132510;27;19915;-58
2023/03/25 13:42:01;;;;;;;;;;;12.20;99.90;;;;;;5117547;27;20302;-60
2023/03/25 13:44:47;;;;;;;;;;;12.10;99.90;;;;;;5136444;27;20403;-60
2023/03/25 13:47:36;;;;;;;;;;;12.20;99.90;;;;;;5136186;27;19933;-60
2023/03/25 13:50:15;;;;;;;;;;;12.20;99.90;;;;;;5134543;27;19912;-58
2023/03/25 13:52:42;;;;;;;;;;;12.30;99.90;;;;;;5135711;27;19911;-58
2023/03/25 13:55:11;;;;;;;;;;;12.20;99.90;;;;;;5136324;27;20456;-58
2023/03/25 13:57:43;;;;;;;;;;;12.20;99.90;;;;;;5136117;27;20383;-60
2023/03/25 14:00:18;;;;;;;;;;;12.30;99.90;;;;;;5134879;27;19971;-58
2023/03/25 14:02:52;;;;;;;;;;;12.30;99.90;;;;;;5124248;27;19912;-59
2023/03/25 14:05:44;;;;;;;;;;;12.10;99.90;;;;;;5115609;28;19908;-58
2023/03/25 14:08:27;;;;;;;;;;;12.00;99.90;;;;;;5129464;27;19916;-58
2023/03/25 14:10:57;;;;;;;;;;;11.90;99.90;;;;;;5136115;27;19980;-59
2023/03/25 14:13:36;;;;;;;;;;;11.80;99.90;;;;;;5135445;27;19912;-58
2023/03/25 14:16:04;;;;;;;;;;;11.70;99.90;;;;;;5135935;27;19938;-60
2023/03/25 14:18:30;;;;;;;;;;;11.70;99.90;;;;;;5135960;27;19907;-60
2023/03/25 14:20:57;;;;;;;;;;;11.60;99.90;;;;;;5135401;27;19927;-59
2023/03/25 14:23:25;;;;;;;;;;;11.50;99.90;;;;;;5136182;27;19999;-59
2023/03/25 14:25:56;;;;;;;;;;;11.40;99.90;;;;;;5135518;27;19931;-58
2023/03/25 14:28:42;;;;;;;;;;;11.20;99.90;;;;;;5134462;27;19908;-55
2023/03/25 14:31:16;;;;;;;;;;;11.00;99.90;;;;;;5135528;27;19918;-57
2023/03/25 14:34:03;;;;;;;;;;;10.70;99.90;;;;;;5136116;27;19911;-54
2023/03/25 14:36:37;;;;;;;;;;;10.40;99.90;;;;;;5135837;27;20404;-62
2023/03/25 14:39:08;;;;;;;;;;;10.00;99.90;;;;;;5135276;27;19932;-53